Terminal Aerodrome Forecast
Issued by NWS

Current Version | Previous Version | Text Only | Print | Product List | Glossary On
Versions: 1 2 3 4 5 6 7 8 9 10 11 12 13 14 15 16
000
FTUS41 KILN 010800 AAA
TAFLCK
TAF AMD
KLCK 010855Z 0109/0206 34012G22KT P6SM VCSH OVC011
     FM011600 35017G25KT P6SM OVC025
     FM012300 34010KT P6SM BKN035=

USA.gov is the U.S. government's official web portal to all federal, state and local government web resources and services.